WXM80 ListenWXM80 Stop

You find our weather info also at:

UK Metoffice

WeatherCloud

Weather Underground

Northeastern Weather Network

AWEKAS

Citizen Weather Observer Program (CWOP)

HAMweather, WeatherForYou, PWS Weather


Weather Underground History page Text

Daily Summary for May 30, 2017 Units:  Both    English   Metric
« Previous Day
Next Day »
Daily Weekly Monthly Yearly Custom
  High: Low: Average:
Temperature: 63.0 °F /  17.2 °C 54.2 °F /  12.3 °C 58 °F /  14.4 °C
Dew Point: 58.3 °F /  14.6 °C 52.5 °F /  11.4 °C 55.1 °F /  12.8 °C
Humidity: 96 % 80 % 90 %
Wind Speed: 5.6 mph /  9 km/h - 1.1 mph /  1.8 km/h
Wind Gust: 8.1 mph /  13 km/h - -
Wind:- - SE
Pressure: 30.15 in /  1020.9 hPa 30.06 in /  1017.8 hPa -
Precipitation: 0.00 in /  0 mm    
Historical Graphs
 
 
Tabular Data for May 30, 2017
Time Temperature Dew Point Pressure Wind Wind Speed Wind Gust Humidity Rainfall Rate (Hourly)
00:04 54.8 °F /  12.7 °C 53.4 °F /  11.9 °C 30.06 in /  1017.8 hPa Calm   1.0 mph /  1.6 km/h 95 % 0.00 in /  0 mm
00:09 54.8 °F /  12.7 °C 53.4 °F /  11.9 °C 30.06 in /  1017.8 hPa Calm     95 % 0.00 in /  0 mm
00:14 54.8 °F /  12.7 °C 53.4 °F /  11.9 °C 30.07 in /  1018.2 hPa Calm     95 % 0.00 in /  0 mm
00:19 54.8 °F /  12.7 °C 53.4 °F /  11.9 °C 30.07 in /  1018.2 hPa Calm     95 % 0.00 in /  0 mm
00:24 54.8 °F /  12.7 °C 53.4 °F /  11.9 °C 30.08 in /  1018.5 hPa Calm     95 % 0.00 in /  0 mm
00:29 54.8 °F /  12.7 °C 53.4 °F /  11.9 °C 30.08 in /  1018.5 hPa Calm     95 % 0.00 in /  0 mm
00:34 54.8 °F /  12.7 °C 53.4 °F /  11.9 °C 30.08 in /  1018.5 hPa Calm     95 % 0.00 in /  0 mm
00:39 54.8 °F /  12.7 °C 53.4 °F /  11.9 °C 30.08 in /  1018.5 hPa Calm     95 % 0.00 in /  0 mm
00:44 54.8 °F /  12.7 °C 53.4 °F /  11.9 °C 30.08 in /  1018.5 hPa Calm     95 % 0.00 in /  0 mm
00:49 54.9 °F /  12.7 °C 53.5 °F /  11.9 °C 30.08 in /  1018.5 hPa Calm     95 % 0.00 in /  0 mm
00:54 54.9 °F /  12.7 °C 53.5 °F /  11.9 °C 30.08 in /  1018.5 hPa Calm     95 % 0.00 in /  0 mm
00:59 54.9 °F /  12.7 °C 53.5 °F /  11.9 °C 30.09 in /  1018.8 hPa Calm     95 % 0.00 in /  0 mm
01:04 54.9 °F /  12.7 °C 53.5 °F /  11.9 °C 30.09 in /  1018.8 hPa SE 1.2 mph /  1.9 km/h 3.5 mph /  5.6 km/h 95 % 0.00 in /  0 mm
01:09 55.0 °F /  12.8 °C 53.6 °F /  12 °C 30.09 in /  1018.8 hPa Calm   1.0 mph /  1.6 km/h 95 % 0.00 in /  0 mm
01:14 55.0 °F /  12.8 °C 53.9 °F /  12.2 °C 30.10 in /  1019.2 hPa Calm     96 % 0.00 in /  0 mm
01:20 55.0 °F /  12.8 °C 53.9 °F /  12.2 °C 30.10 in /  1019.2 hPa Calm     96 % 0.00 in /  0 mm
01:30 55.0 °F /  12.8 °C 53.9 °F /  12.2 °C 30.10 in /  1019.2 hPa Calm     96 % 0.00 in /  0 mm
01:35 55.0 °F /  12.8 °C 53.9 °F /  12.2 °C 30.10 in /  1019.2 hPa Calm     96 % 0.00 in /  0 mm
01:40 55.0 °F /  12.8 °C 53.9 °F /  12.2 °C 30.10 in /  1019.2 hPa Calm     96 % 0.00 in /  0 mm
01:45 55.0 °F /  12.8 °C 53.9 °F /  12.2 °C 30.09 in /  1018.8 hPa Calm     96 % 0.00 in /  0 mm
01:50 55.0 °F /  12.8 °C 53.9 °F /  12.2 °C 30.09 in /  1018.8 hPa Calm     96 % 0.00 in /  0 mm
01:55 55.0 °F /  12.8 °C 53.9 °F /  12.2 °C 30.09 in /  1018.8 hPa Calm     96 % 0.00 in /  0 mm
02:00 55.1 °F /  12.8 °C 54.0 °F /  12.2 °C 30.09 in /  1018.8 hPa Calm     96 % 0.00 in /  0 mm
02:05 55.0 °F /  12.8 °C 53.9 °F /  12.2 °C 30.09 in /  1018.8 hPa Calm     96 % 0.00 in /  0 mm
02:10 55.0 °F /  12.8 °C 53.9 °F /  12.2 °C 30.09 in /  1018.8 hPa Calm     96 % 0.00 in /  0 mm
02:15 55.0 °F /  12.8 °C 53.9 °F /  12.2 °C 30.10 in /  1019.2 hPa Calm     96 % 0.00 in /  0 mm
02:20 55.0 °F /  12.8 °C 53.9 °F /  12.2 °C 30.10 in /  1019.2 hPa Calm     96 % 0.00 in /  0 mm
02:25 55.0 °F /  12.8 °C 53.9 °F /  12.2 °C 30.10 in /  1019.2 hPa Calm     96 % 0.00 in /  0 mm
02:30 55.0 °F /  12.8 °C 53.9 °F /  12.2 °C 30.10 in /  1019.2 hPa Calm     96 % 0.00 in /  0 mm
02:35 55.0 °F /  12.8 °C 53.9 °F /  12.2 °C 30.10 in /  1019.2 hPa Calm     96 % 0.00 in /  0 mm
02:40 54.9 °F /  12.7 °C 53.5 °F /  11.9 °C 30.10 in /  1019.2 hPa Calm     95 % 0.00 in /  0 mm
02:45 54.9 °F /  12.7 °C 53.5 °F /  11.9 °C 30.10 in /  1019.2 hPa Calm     95 % 0.00 in /  0 mm
02:50 54.9 °F /  12.7 °C 53.5 °F /  11.9 °C 30.10 in /  1019.2 hPa Calm     95 % 0.00 in /  0 mm
02:55 54.9 °F /  12.7 °C 53.5 °F /  11.9 °C 30.10 in /  1019.2 hPa Calm     95 % 0.00 in /  0 mm
03:00 54.9 °F /  12.7 °C 53.8 °F /  12.1 °C 30.09 in /  1018.8 hPa Calm     96 % 0.00 in /  0 mm
03:05 54.9 °F /  12.7 °C 53.8 °F /  12.1 °C 30.10 in /  1019.2 hPa Calm     96 % 0.00 in /  0 mm
03:10 54.8 °F /  12.7 °C 53.4 °F /  11.9 °C 30.09 in /  1018.8 hPa SE 0.3 mph /  0.5 km/h 1.2 mph /  1.9 km/h 95 % 0.00 in /  0 mm
03:15 54.8 °F /  12.7 °C 53.4 °F /  11.9 °C 30.09 in /  1018.8 hPa Calm   1.2 mph /  1.9 km/h 95 % 0.00 in /  0 mm
03:20 54.9 °F /  12.7 °C 53.5 °F /  11.9 °C 30.10 in /  1019.2 hPa Calm     95 % 0.00 in /  0 mm
03:25 54.8 °F /  12.7 °C 53.4 °F /  11.9 °C 30.10 in /  1019.2 hPa Calm     95 % 0.00 in /  0 mm
03:31 54.8 °F /  12.7 °C 53.4 °F /  11.9 °C 30.10 in /  1019.2 hPa Calm   1.0 mph /  1.6 km/h 95 % 0.00 in /  0 mm
03:36 54.8 °F /  12.7 °C 53.4 °F /  11.9 °C 30.10 in /  1019.2 hPa Calm   2.0 mph /  3.2 km/h 95 % 0.00 in /  0 mm
03:41 54.8 °F /  12.7 °C 53.4 °F /  11.9 °C 30.10 in /  1019.2 hPa Calm   1.0 mph /  1.6 km/h 95 % 0.00 in /  0 mm
03:46 54.8 °F /  12.7 °C 53.4 °F /  11.9 °C 30.10 in /  1019.2 hPa Calm   2.0 mph /  3.2 km/h 95 % 0.00 in /  0 mm
03:51 54.8 °F /  12.7 °C 53.4 °F /  11.9 °C 30.11 in /  1019.5 hPa SE 1.0 mph /  1.6 km/h 2.0 mph /  3.2 km/h 95 % 0.00 in /  0 mm
03:56 54.6 °F /  12.6 °C 53.2 °F /  11.8 °C 30.10 in /  1019.2 hPa SE 1.0 mph /  1.6 km/h 4.0 mph /  6.4 km/h 95 % 0.00 in /  0 mm
04:01 54.6 °F /  12.6 °C 52.9 °F /  11.6 °C 30.10 in /  1019.2 hPa Calm   3.5 mph /  5.6 km/h 94 % 0.00 in /  0 mm
04:06 54.5 °F /  12.5 °C 53.1 °F /  11.7 °C 30.10 in /  1019.2 hPa SSE 1.6 mph /  2.6 km/h 3.5 mph /  5.6 km/h 95 % 0.00 in /  0 mm
04:11 54.5 °F /  12.5 °C 52.8 °F /  11.6 °C 30.10 in /  1019.2 hPa Calm   3.0 mph /  4.8 km/h 94 % 0.00 in /  0 mm
04:16 54.5 °F /  12.5 °C 52.8 °F /  11.6 °C 30.10 in /  1019.2 hPa SE 1.5 mph /  2.4 km/h 3.5 mph /  5.6 km/h 94 % 0.00 in /  0 mm
04:21 54.4 °F /  12.4 °C 52.7 °F /  11.5 °C 30.10 in /  1019.2 hPa SE 2.0 mph /  3.2 km/h 4.0 mph /  6.4 km/h 94 % 0.00 in /  0 mm
04:26 54.4 °F /  12.4 °C 52.7 °F /  11.5 °C 30.11 in /  1019.5 hPa Calm   3.0 mph /  4.8 km/h 94 % 0.00 in /  0 mm
04:31 54.4 °F /  12.4 °C 52.7 °F /  11.5 °C 30.11 in /  1019.5 hPa Calm   3.0 mph /  4.8 km/h 94 % 0.00 in /  0 mm
04:36 54.4 °F /  12.4 °C 52.7 °F /  11.5 °C 30.11 in /  1019.5 hPa SE 1.0 mph /  1.6 km/h 5.0 mph /  8 km/h 94 % 0.00 in /  0 mm
04:41 54.4 °F /  12.4 °C 52.7 °F /  11.5 °C 30.11 in /  1019.5 hPa Calm   3.0 mph /  4.8 km/h 94 % 0.00 in /  0 mm
04:46 54.4 °F /  12.4 °C 52.7 °F /  11.5 °C 30.11 in /  1019.5 hPa Calm   5.0 mph /  8 km/h 94 % 0.00 in /  0 mm
04:51 54.4 °F /  12.4 °C 52.7 °F /  11.5 °C 30.11 in /  1019.5 hPa Calm   2.0 mph /  3.2 km/h 94 % 0.00 in /  0 mm
04:56 54.3 °F /  12.4 °C 52.6 °F /  11.4 °C 30.11 in /  1019.5 hPa SSE 1.0 mph /  1.6 km/h 4.0 mph /  6.4 km/h 94 % 0.00 in /  0 mm
05:01 54.3 °F /  12.4 °C 52.6 °F /  11.4 °C 30.11 in /  1019.5 hPa SE 0.5 mph /  0.8 km/h 2.0 mph /  3.2 km/h 94 % 0.00 in /  0 mm
05:06 54.3 °F /  12.4 °C 52.6 °F /  11.4 °C 30.11 in /  1019.5 hPa Calm     94 % 0.00 in /  0 mm
05:11 54.3 °F /  12.4 °C 52.6 °F /  11.4 °C 30.11 in /  1019.5 hPa Calm   1.2 mph /  1.9 km/h 94 % 0.00 in /  0 mm
05:16 54.3 °F /  12.4 °C 52.9 °F /  11.6 °C 30.11 in /  1019.5 hPa Calm     95 % 0.00 in /  0 mm
05:21 54.2 °F /  12.3 °C 52.5 °F /  11.4 °C 30.11 in /  1019.5 hPa SE 1.6 mph /  2.6 km/h 5.8 mph /  9.3 km/h 94 % 0.00 in /  0 mm
05:26 54.2 °F /  12.3 °C 52.5 °F /  11.4 °C 30.12 in /  1019.9 hPa SSE 0.7 mph /  1.1 km/h 3.0 mph /  4.8 km/h 94 % 0.00 in /  0 mm
05:31 54.2 °F /  12.3 °C 52.5 °F /  11.4 °C 30.12 in /  1019.9 hPa SSE 0.5 mph /  0.8 km/h 1.0 mph /  1.6 km/h 94 % 0.00 in /  0 mm
05:36 54.2 °F /  12.3 °C 52.5 °F /  11.4 °C 30.12 in /  1019.9 hPa SE 1.0 mph /  1.6 km/h 3.5 mph /  5.6 km/h 94 % 0.00 in /  0 mm
05:41 54.2 °F /  12.3 °C 52.5 °F /  11.4 °C 30.12 in /  1019.9 hPa SE 0.3 mph /  0.5 km/h 2.3 mph /  3.7 km/h 94 % 0.00 in /  0 mm
05:46 54.2 °F /  12.3 °C 52.5 °F /  11.4 °C 30.12 in /  1019.9 hPa Calm   1.2 mph /  1.9 km/h 94 % 0.00 in /  0 mm
05:51 54.2 °F /  12.3 °C 52.8 °F /  11.6 °C 30.12 in /  1019.9 hPa Calm     95 % 0.00 in /  0 mm
05:56 54.2 °F /  12.3 °C 52.8 °F /  11.6 °C 30.12 in /  1019.9 hPa Calm     95 % 0.00 in /  0 mm
06:01 54.2 °F /  12.3 °C 52.8 °F /  11.6 °C 30.12 in /  1019.9 hPa SSE 3.9 mph /  6.3 km/h 6.0 mph /  9.7 km/h 95 % 0.00 in /  0 mm
06:06 54.2 °F /  12.3 °C 52.8 °F /  11.6 °C 30.13 in /  1020.2 hPa Calm     95 % 0.00 in /  0 mm
06:11 54.2 °F /  12.3 °C 52.8 °F /  11.6 °C 30.13 in /  1020.2 hPa Calm   3.5 mph /  5.6 km/h 95 % 0.00 in /  0 mm
06:16 54.3 °F /  12.4 °C 52.9 °F /  11.6 °C 30.13 in /  1020.2 hPa SE 0.8 mph /  1.3 km/h 3.0 mph /  4.8 km/h 95 % 0.00 in /  0 mm
06:21 54.3 °F /  12.4 °C 52.9 °F /  11.6 °C 30.13 in /  1020.2 hPa SE 1.3 mph /  2.1 km/h 3.5 mph /  5.6 km/h 95 % 0.00 in /  0 mm
06:26 54.3 °F /  12.4 °C 52.9 °F /  11.6 °C 30.13 in /  1020.2 hPa SE 0.4 mph /  0.6 km/h 2.3 mph /  3.7 km/h 95 % 0.00 in /  0 mm
06:31 54.4 °F /  12.4 °C 53.0 °F /  11.7 °C 30.13 in /  1020.2 hPa SSE 5.2 mph /  8.4 km/h 8.1 mph /  13 km/h 95 % 0.00 in /  0 mm
06:36 54.4 °F /  12.4 °C 53.0 °F /  11.7 °C 30.14 in /  1020.5 hPa SE 4.6 mph /  7.4 km/h 5.8 mph /  9.3 km/h 95 % 0.00 in /  0 mm
06:41 54.4 °F /  12.4 °C 53.0 °F /  11.7 °C 30.13 in /  1020.2 hPa SSE 1.2 mph /  1.9 km/h 5.8 mph /  9.3 km/h 95 % 0.00 in /  0 mm
06:46 54.4 °F /  12.4 °C 53.0 °F /  11.7 °C 30.13 in /  1020.2 hPa SE 2.7 mph /  4.3 km/h 3.5 mph /  5.6 km/h 95 % 0.00 in /  0 mm
06:51 54.5 °F /  12.5 °C 53.1 °F /  11.7 °C 30.14 in /  1020.5 hPa SSE 4.7 mph /  7.6 km/h 6.0 mph /  9.7 km/h 95 % 0.00 in /  0 mm
06:56 54.5 °F /  12.5 °C 53.1 °F /  11.7 °C 30.13 in /  1020.2 hPa SSE 1.7 mph /  2.7 km/h 5.8 mph /  9.3 km/h 95 % 0.00 in /  0 mm
07:01 54.5 °F /  12.5 °C 53.1 °F /  11.7 °C 30.13 in /  1020.2 hPa ESE 2.5 mph /  4 km/h 5.8 mph /  9.3 km/h 95 % 0.00 in /  0 mm
07:06 54.6 °F /  12.6 °C 53.2 °F /  11.8 °C 30.13 in /  1020.2 hPa SE 2.1 mph /  3.4 km/h 4.6 mph /  7.4 km/h 95 % 0.00 in /  0 mm
07:11 54.6 °F /  12.6 °C 53.2 °F /  11.8 °C 30.13 in /  1020.2 hPa SE 2.2 mph /  3.5 km/h 3.5 mph /  5.6 km/h 95 % 0.00 in /  0 mm
07:16 54.7 °F /  12.6 °C 53.3 °F /  11.8 °C 30.14 in /  1020.5 hPa Calm   1.2 mph /  1.9 km/h 95 % 0.00 in /  0 mm
07:21 54.7 °F /  12.6 °C 53.3 °F /  11.8 °C 30.14 in /  1020.5 hPa SSE 0.4 mph /  0.6 km/h 4.0 mph /  6.4 km/h 95 % 0.00 in /  0 mm
07:26 54.8 °F /  12.7 °C 53.4 °F /  11.9 °C 30.14 in /  1020.5 hPa SE 1.8 mph /  2.9 km/h 4.6 mph /  7.4 km/h 95 % 0.00 in /  0 mm
07:31 54.8 °F /  12.7 °C 53.4 °F /  11.9 °C 30.14 in /  1020.5 hPa SSE 1.5 mph /  2.4 km/h 5.8 mph /  9.3 km/h 95 % 0.00 in /  0 mm
07:36 54.9 °F /  12.7 °C 53.5 °F /  11.9 °C 30.15 in /  1020.9 hPa SSE 2.4 mph /  3.9 km/h 2.4 mph /  3.9 km/h 95 % 0.00 in /  0 mm
07:41 54.9 °F /  12.7 °C 53.5 °F /  11.9 °C 30.14 in /  1020.5 hPa SE 0.6 mph /  1 km/h 3.5 mph /  5.6 km/h 95 % 0.00 in /  0 mm
07:46 55.0 °F /  12.8 °C 53.6 °F /  12 °C 30.14 in /  1020.5 hPa SE 0.4 mph /  0.6 km/h 3.5 mph /  5.6 km/h 95 % 0.00 in /  0 mm
07:51 55.1 °F /  12.8 °C 53.7 °F /  12.1 °C 30.14 in /  1020.5 hPa SE 1.5 mph /  2.4 km/h 5.8 mph /  9.3 km/h 95 % 0.00 in /  0 mm
07:56 55.1 °F /  12.8 °C 53.7 °F /  12.1 °C 30.15 in /  1020.9 hPa SE 2.9 mph /  4.7 km/h 4.6 mph /  7.4 km/h 95 % 0.00 in /  0 mm
08:01 55.2 °F /  12.9 °C 53.8 °F /  12.1 °C 30.15 in /  1020.9 hPa SE 0.8 mph /  1.3 km/h 3.5 mph /  5.6 km/h 95 % 0.00 in /  0 mm
08:06 55.3 °F /  12.9 °C 53.9 °F /  12.2 °C 30.15 in /  1020.9 hPa SE 0.8 mph /  1.3 km/h 2.3 mph /  3.7 km/h 95 % 0.00 in /  0 mm
08:11 55.3 °F /  12.9 °C 53.9 °F /  12.2 °C 30.15 in /  1020.9 hPa Calm   2.3 mph /  3.7 km/h 95 % 0.00 in /  0 mm
08:16 55.4 °F /  13 °C 54.0 °F /  12.2 °C 30.15 in /  1020.9 hPa SE 1.1 mph /  1.8 km/h 5.8 mph /  9.3 km/h 95 % 0.00 in /  0 mm
08:21 55.4 °F /  13 °C 54.0 °F /  12.2 °C 30.15 in /  1020.9 hPa SE 0.2 mph /  0.3 km/h 4.0 mph /  6.4 km/h 95 % 0.00 in /  0 mm
08:22 55.5 °F /  13.1 °C 54.1 °F /  12.3 °C 30.15 in /  1020.9 hPa SE 1.6 mph /  2.6 km/h 3.5 mph /  5.6 km/h 95 % 0.00 in /  0 mm
08:27 55.5 °F /  13.1 °C 54.1 °F /  12.3 °C 30.15 in /  1020.9 hPa SE 0.2 mph /  0.3 km/h 1.2 mph /  1.9 km/h 95 % 0.00 in /  0 mm
08:32 55.7 °F /  13.2 °C 54.3 °F /  12.4 °C 30.15 in /  1020.9 hPa SE 1.1 mph /  1.8 km/h 2.0 mph /  3.2 km/h 95 % 0.00 in /  0 mm
08:38 55.8 °F /  13.2 °C 54.4 °F /  12.4 °C 30.15 in /  1020.9 hPa Calm   1.2 mph /  1.9 km/h 95 % 0.00 in /  0 mm
08:48 56.0 °F /  13.3 °C 54.6 °F /  12.6 °C 30.15 in /  1020.9 hPa SE 0.1 mph /  0.2 km/h 3.5 mph /  5.6 km/h 95 % 0.00 in /  0 mm
08:53 56.1 °F /  13.4 °C 54.4 °F /  12.4 °C 30.15 in /  1020.9 hPa SE 0.5 mph /  0.8 km/h 2.3 mph /  3.7 km/h 94 % 0.00 in /  0 mm
08:58 56.3 °F /  13.5 °C 54.9 °F /  12.7 °C 30.15 in /  1020.9 hPa SE 1.0 mph /  1.6 km/h 3.5 mph /  5.6 km/h 95 % 0.00 in /  0 mm
09:03 56.6 °F /  13.7 °C 55.2 °F /  12.9 °C 30.15 in /  1020.9 hPa Calm     95 % 0.00 in /  0 mm
09:08 56.8 °F /  13.8 °C 55.1 °F /  12.8 °C 30.15 in /  1020.9 hPa SE 1.0 mph /  1.6 km/h 3.5 mph /  5.6 km/h 94 % 0.00 in /  0 mm
09:13 57.0 °F /  13.9 °C 55.3 °F /  12.9 °C 30.14 in /  1020.5 hPa SSE 2.5 mph /  4 km/h 5.0 mph /  8 km/h 94 % 0.00 in /  0 mm
09:18 57.1 °F /  13.9 °C 55.4 °F /  13 °C 30.15 in /  1020.9 hPa ESE 0.5 mph /  0.8 km/h 6.9 mph /  11.1 km/h 94 % 0.00 in /  0 mm
09:23 57.3 °F /  14.1 °C 55.3 °F /  12.9 °C 30.15 in /  1020.9 hPa SSE 4.0 mph /  6.4 km/h 5.8 mph /  9.3 km/h 93 % 0.00 in /  0 mm
09:28 57.3 °F /  14.1 °C 55.0 °F /  12.8 °C 30.15 in /  1020.9 hPa SE 2.2 mph /  3.5 km/h 3.5 mph /  5.6 km/h 92 % 0.00 in /  0 mm
09:33 57.4 °F /  14.1 °C 55.1 °F /  12.8 °C 30.15 in /  1020.9 hPa SSE 1.5 mph /  2.4 km/h 3.5 mph /  5.6 km/h 92 % 0.00 in /  0 mm
09:38 57.6 °F /  14.2 °C 55.6 °F /  13.1 °C 30.14 in /  1020.5 hPa Calm   1.0 mph /  1.6 km/h 93 % 0.00 in /  0 mm
09:43 57.8 °F /  14.3 °C 55.8 °F /  13.2 °C 30.15 in /  1020.9 hPa SE 0.5 mph /  0.8 km/h 3.5 mph /  5.6 km/h 93 % 0.00 in /  0 mm
09:48 57.9 °F /  14.4 °C 55.9 °F /  13.3 °C 30.15 in /  1020.9 hPa Calm     93 % 0.00 in /  0 mm
09:53 58.0 °F /  14.4 °C 55.7 °F /  13.2 °C 30.15 in /  1020.9 hPa SE 0.6 mph /  1 km/h 1.2 mph /  1.9 km/h 92 % 0.00 in /  0 mm
09:58 58.1 °F /  14.5 °C 55.8 °F /  13.2 °C 30.15 in /  1020.9 hPa SSE 2.2 mph /  3.5 km/h 3.5 mph /  5.6 km/h 92 % 0.00 in /  0 mm
10:03 58.2 °F /  14.6 °C 55.9 °F /  13.3 °C 30.15 in /  1020.9 hPa SE 0.1 mph /  0.2 km/h 1.2 mph /  1.9 km/h 92 % 0.00 in /  0 mm
10:08 58.3 °F /  14.6 °C 56.0 °F /  13.3 °C 30.14 in /  1020.5 hPa SSE 0.9 mph /  1.4 km/h 3.0 mph /  4.8 km/h 92 % 0.00 in /  0 mm
10:13 58.4 °F /  14.7 °C 55.8 °F /  13.2 °C 30.14 in /  1020.5 hPa SE 0.6 mph /  1 km/h 3.5 mph /  5.6 km/h 91 % 0.00 in /  0 mm
10:18 58.6 °F /  14.8 °C 56.3 °F /  13.5 °C 30.14 in /  1020.5 hPa SE 2.5 mph /  4 km/h 4.6 mph /  7.4 km/h 92 % 0.00 in /  0 mm
10:23 58.5 °F /  14.7 °C 55.9 °F /  13.3 °C 30.15 in /  1020.9 hPa SE 1.2 mph /  1.9 km/h 4.6 mph /  7.4 km/h 91 % 0.00 in /  0 mm
10:28 58.6 °F /  14.8 °C 55.7 °F /  13.2 °C 30.14 in /  1020.5 hPa SSE 0.5 mph /  0.8 km/h 4.6 mph /  7.4 km/h 90 % 0.00 in /  0 mm
10:33 58.7 °F /  14.8 °C 56.1 °F /  13.4 °C 30.14 in /  1020.5 hPa Calm   1.2 mph /  1.9 km/h 91 % 0.00 in /  0 mm
10:38 59.0 °F /  15 °C 56.7 °F /  13.7 °C 30.14 in /  1020.5 hPa Calm   1.2 mph /  1.9 km/h 92 % 0.00 in /  0 mm
10:43 59.0 °F /  15 °C 56.1 °F /  13.4 °C 30.14 in /  1020.5 hPa SSE 1.8 mph /  2.9 km/h 3.5 mph /  5.6 km/h 90 % 0.00 in /  0 mm
10:48 59.2 °F /  15.1 °C 56.3 °F /  13.5 °C 30.14 in /  1020.5 hPa Calm   1.2 mph /  1.9 km/h 90 % 0.00 in /  0 mm
10:54 59.3 °F /  15.2 °C 56.4 °F /  13.6 °C 30.14 in /  1020.5 hPa SE 0.1 mph /  0.2 km/h 5.8 mph /  9.3 km/h 90 % 0.00 in /  0 mm
10:59 59.3 °F /  15.2 °C 55.7 °F /  13.2 °C 30.14 in /  1020.5 hPa SE 2.6 mph /  4.2 km/h 5.8 mph /  9.3 km/h 88 % 0.00 in /  0 mm
11:04 59.5 °F /  15.3 °C 56.3 °F /  13.5 °C 30.14 in /  1020.5 hPa SE 0.2 mph /  0.3 km/h 2.0 mph /  3.2 km/h 89 % 0.00 in /  0 mm
11:09 59.8 °F /  15.4 °C 56.9 °F /  13.8 °C 30.14 in /  1020.5 hPa SSE 3.1 mph /  5 km/h 4.6 mph /  7.4 km/h 90 % 0.00 in /  0 mm
11:14 60.0 °F /  15.6 °C 56.7 °F /  13.7 °C 30.14 in /  1020.5 hPa SE 0.7 mph /  1.1 km/h 2.0 mph /  3.2 km/h 89 % 0.00 in /  0 mm
11:19 60.2 °F /  15.7 °C 56.9 °F /  13.8 °C 30.14 in /  1020.5 hPa ESE 1.0 mph /  1.6 km/h 3.5 mph /  5.6 km/h 89 % 0.00 in /  0 mm
11:24 60.2 °F /  15.7 °C 56.6 °F /  13.7 °C 30.14 in /  1020.5 hPa SE 3.1 mph /  5 km/h 5.8 mph /  9.3 km/h 88 % 0.00 in /  0 mm
11:29 60.4 °F /  15.8 °C 57.1 °F /  13.9 °C 30.13 in /  1020.2 hPa SE 3.5 mph /  5.6 km/h 5.8 mph /  9.3 km/h 89 % 0.00 in /  0 mm
11:34 60.7 °F /  15.9 °C 57.1 °F /  13.9 °C 30.13 in /  1020.2 hPa Calm   2.3 mph /  3.7 km/h 88 % 0.00 in /  0 mm
11:39 60.8 °F /  16 °C 56.9 °F /  13.8 °C 30.13 in /  1020.2 hPa SE 0.5 mph /  0.8 km/h 2.3 mph /  3.7 km/h 87 % 0.00 in /  0 mm
11:44 61.0 °F /  16.1 °C 57.1 °F /  13.9 °C 30.13 in /  1020.2 hPa SSE 0.2 mph /  0.3 km/h 2.3 mph /  3.7 km/h 87 % 0.00 in /  0 mm
11:49 61.3 °F /  16.3 °C 57.7 °F /  14.3 °C 30.13 in /  1020.2 hPa SSE 0.2 mph /  0.3 km/h 2.3 mph /  3.7 km/h 88 % 0.00 in /  0 mm
11:54 61.7 °F /  16.5 °C 58.1 °F /  14.5 °C 30.13 in /  1020.2 hPa ESE 0.8 mph /  1.3 km/h 2.3 mph /  3.7 km/h 88 % 0.00 in /  0 mm
11:59 61.7 °F /  16.5 °C 57.1 °F /  13.9 °C 30.14 in /  1020.5 hPa SSE 1.5 mph /  2.4 km/h 3.5 mph /  5.6 km/h 85 % 0.00 in /  0 mm
12:04 61.8 °F /  16.6 °C 57.6 °F /  14.2 °C 30.14 in /  1020.5 hPa SSE 0.1 mph /  0.2 km/h 2.3 mph /  3.7 km/h 86 % 0.00 in /  0 mm
12:09 61.8 °F /  16.6 °C 57.2 °F /  14 °C 30.14 in /  1020.5 hPa SE 0.1 mph /  0.2 km/h 1.2 mph /  1.9 km/h 85 % 0.00 in /  0 mm
12:14 61.7 °F /  16.5 °C 56.8 °F /  13.8 °C 30.14 in /  1020.5 hPa SSE 1.1 mph /  1.8 km/h 6.9 mph /  11.1 km/h 84 % 0.00 in /  0 mm
12:19 61.7 °F /  16.5 °C 56.8 °F /  13.8 °C 30.15 in /  1020.9 hPa SSE 0.9 mph /  1.4 km/h 4.6 mph /  7.4 km/h 84 % 0.00 in /  0 mm
12:24 61.6 °F /  16.4 °C 56.7 °F /  13.7 °C 30.14 in /  1020.5 hPa SSE 0.9 mph /  1.4 km/h 3.5 mph /  5.6 km/h 84 % 0.00 in /  0 mm
12:29 61.7 °F /  16.5 °C 57.1 °F /  13.9 °C 30.14 in /  1020.5 hPa SSE 1.8 mph /  2.9 km/h 4.6 mph /  7.4 km/h 85 % 0.00 in /  0 mm
12:34 61.7 °F /  16.5 °C 56.8 °F /  13.8 °C 30.14 in /  1020.5 hPa SSE 3.6 mph /  5.8 km/h 7.0 mph /  11.3 km/h 84 % 0.00 in /  0 mm
12:39 61.9 °F /  16.6 °C 57.3 °F /  14.1 °C 30.14 in /  1020.5 hPa SSW 1.5 mph /  2.4 km/h 3.0 mph /  4.8 km/h 85 % 0.00 in /  0 mm
12:44 61.9 °F /  16.6 °C 56.3 °F /  13.5 °C 30.14 in /  1020.5 hPa SSE 1.5 mph /  2.4 km/h 4.6 mph /  7.4 km/h 82 % 0.00 in /  0 mm
12:49 62.1 °F /  16.7 °C 57.2 °F /  14 °C 30.13 in /  1020.2 hPa SE 1.4 mph /  2.3 km/h 3.5 mph /  5.6 km/h 84 % 0.00 in /  0 mm
12:54 62.3 °F /  16.8 °C 57.4 °F /  14.1 °C 30.14 in /  1020.5 hPa SE 1.4 mph /  2.3 km/h 3.5 mph /  5.6 km/h 84 % 0.00 in /  0 mm
12:59 62.6 °F /  17 °C 58.0 °F /  14.4 °C 30.13 in /  1020.2 hPa SE 2.1 mph /  3.4 km/h 3.5 mph /  5.6 km/h 85 % 0.00 in /  0 mm
13:04 62.9 °F /  17.2 °C 58.3 °F /  14.6 °C 30.13 in /  1020.2 hPa SE 2.1 mph /  3.4 km/h 4.6 mph /  7.4 km/h 85 % 0.00 in /  0 mm
13:09 62.9 °F /  17.2 °C 57.7 °F /  14.3 °C 30.13 in /  1020.2 hPa ESE 0.8 mph /  1.3 km/h 5.8 mph /  9.3 km/h 83 % 0.00 in /  0 mm
13:14 62.9 °F /  17.2 °C 57.3 °F /  14.1 °C 30.13 in /  1020.2 hPa ESE 1.0 mph /  1.6 km/h 6.9 mph /  11.1 km/h 82 % 0.00 in /  0 mm
13:19 63.0 °F /  17.2 °C 57.4 °F /  14.1 °C 30.13 in /  1020.2 hPa Calm   5.8 mph /  9.3 km/h 82 % 0.00 in /  0 mm
13:24 63.0 °F /  17.2 °C 57.4 °F /  14.1 °C 30.13 in /  1020.2 hPa SSE 3.6 mph /  5.8 km/h 4.0 mph /  6.4 km/h 82 % 0.00 in /  0 mm
13:29 62.7 °F /  17.1 °C 56.8 °F /  13.8 °C 30.13 in /  1020.2 hPa SE 3.8 mph /  6.1 km/h 8.1 mph /  13 km/h 81 % 0.00 in /  0 mm
13:35 62.4 °F /  16.9 °C 56.8 °F /  13.8 °C 30.13 in /  1020.2 hPa SSW 0.2 mph /  0.3 km/h 3.5 mph /  5.6 km/h 82 % 0.00 in /  0 mm
13:40 62.4 °F /  16.9 °C 56.8 °F /  13.8 °C 30.12 in /  1019.9 hPa SSE 2.6 mph /  4.2 km/h 4.6 mph /  7.4 km/h 82 % 0.00 in /  0 mm
13:45 62.5 °F /  16.9 °C 57.3 °F /  14.1 °C 30.12 in /  1019.9 hPa ESE 1.2 mph /  1.9 km/h 5.8 mph /  9.3 km/h 83 % 0.00 in /  0 mm
13:50 62.6 °F /  17 °C 57.0 °F /  13.9 °C 30.12 in /  1019.9 hPa SSE 1.8 mph /  2.9 km/h 5.8 mph /  9.3 km/h 82 % 0.00 in /  0 mm
13:55 62.4 °F /  16.9 °C 56.5 °F /  13.6 °C 30.12 in /  1019.9 hPa SE 1.1 mph /  1.8 km/h 3.5 mph /  5.6 km/h 81 % 0.00 in /  0 mm
14:00 62.5 °F /  16.9 °C 57.3 °F /  14.1 °C 30.12 in /  1019.9 hPa SW 0.4 mph /  0.6 km/h 5.8 mph /  9.3 km/h 83 % 0.00 in /  0 mm
14:05 62.4 °F /  16.9 °C 56.5 °F /  13.6 °C 30.11 in /  1019.5 hPa SE 3.4 mph /  5.5 km/h 5.8 mph /  9.3 km/h 81 % 0.00 in /  0 mm
14:10 62.2 °F /  16.8 °C 56.3 °F /  13.5 °C 30.11 in /  1019.5 hPa SSE 4.1 mph /  6.6 km/h 6.9 mph /  11.1 km/h 81 % 0.00 in /  0 mm
14:15 62.0 °F /  16.7 °C 56.4 °F /  13.6 °C 30.10 in /  1019.2 hPa SE 4.0 mph /  6.4 km/h 5.8 mph /  9.3 km/h 82 % 0.00 in /  0 mm
14:20 61.8 °F /  16.6 °C 56.2 °F /  13.4 °C 30.11 in /  1019.5 hPa SE 0.9 mph /  1.4 km/h 3.5 mph /  5.6 km/h 82 % 0.00 in /  0 mm
14:25 61.8 °F /  16.6 °C 56.6 °F /  13.7 °C 30.10 in /  1019.2 hPa SE 3.2 mph /  5.1 km/h 6.9 mph /  11.1 km/h 83 % 0.00 in /  0 mm
14:30 61.6 °F /  16.4 °C 56.0 °F /  13.3 °C 30.10 in /  1019.2 hPa SSE 2.3 mph /  3.7 km/h 3.5 mph /  5.6 km/h 82 % 0.00 in /  0 mm
14:35 61.4 °F /  16.3 °C 56.2 °F /  13.4 °C 30.10 in /  1019.2 hPa ESE 1.8 mph /  2.9 km/h 4.6 mph /  7.4 km/h 83 % 0.00 in /  0 mm
14:40 61.4 °F /  16.3 °C 56.2 °F /  13.4 °C 30.11 in /  1019.5 hPa ESE 2.3 mph /  3.7 km/h 3.5 mph /  5.6 km/h 83 % 0.00 in /  0 mm
14:45 61.3 °F /  16.3 °C 56.8 °F /  13.8 °C 30.10 in /  1019.2 hPa SSE 2.4 mph /  3.9 km/h 3.5 mph /  5.6 km/h 85 % 0.00 in /  0 mm
14:50 61.3 °F /  16.3 °C 56.4 °F /  13.6 °C 30.10 in /  1019.2 hPa SE 0.8 mph /  1.3 km/h 3.5 mph /  5.6 km/h 84 % 0.00 in /  0 mm
14:55 61.1 °F /  16.2 °C 55.9 °F /  13.3 °C 30.10 in /  1019.2 hPa SSE 2.9 mph /  4.7 km/h 4.0 mph /  6.4 km/h 83 % 0.00 in /  0 mm
15:00 60.8 °F /  16 °C 55.6 °F /  13.1 °C 30.10 in /  1019.2 hPa SSW 1.2 mph /  1.9 km/h 5.8 mph /  9.3 km/h 83 % 0.00 in /  0 mm
15:05 60.7 °F /  15.9 °C 55.8 °F /  13.2 °C 30.10 in /  1019.2 hPa SE 4.2 mph /  6.8 km/h 6.9 mph /  11.1 km/h 84 % 0.00 in /  0 mm
15:10 60.7 °F /  15.9 °C 55.8 °F /  13.2 °C 30.09 in /  1018.8 hPa SE 2.8 mph /  4.5 km/h 4.6 mph /  7.4 km/h 84 % 0.00 in /  0 mm
15:15 60.7 °F /  15.9 °C 55.8 °F /  13.2 °C 30.09 in /  1018.8 hPa SSE 0.1 mph /  0.2 km/h 1.2 mph /  1.9 km/h 84 % 0.00 in /  0 mm
15:20 60.8 °F /  16 °C 56.3 °F /  13.5 °C 30.09 in /  1018.8 hPa SE 0.7 mph /  1.1 km/h 2.3 mph /  3.7 km/h 85 % 0.00 in /  0 mm
15:25 60.9 °F /  16.1 °C 56.4 °F /  13.6 °C 30.09 in /  1018.8 hPa SE 2.1 mph /  3.4 km/h 3.5 mph /  5.6 km/h 85 % 0.00 in /  0 mm
15:30 61.1 °F /  16.2 °C 56.6 °F /  13.7 °C 30.09 in /  1018.8 hPa ESE 2.1 mph /  3.4 km/h 3.5 mph /  5.6 km/h 85 % 0.00 in /  0 mm
15:35 61.2 °F /  16.2 °C 56.3 °F /  13.5 °C 30.09 in /  1018.8 hPa SSE 2.1 mph /  3.4 km/h 6.0 mph /  9.7 km/h 84 % 0.00 in /  0 mm
15:40 61.3 °F /  16.3 °C 55.8 °F /  13.2 °C 30.09 in /  1018.8 hPa SE 5.6 mph /  9 km/h 5.8 mph /  9.3 km/h 82 % 0.00 in /  0 mm
15:45 61.3 °F /  16.3 °C 56.4 °F /  13.6 °C 30.10 in /  1019.2 hPa SE 1.9 mph /  3.1 km/h 5.8 mph /  9.3 km/h 84 % 0.00 in /  0 mm
15:50 61.4 °F /  16.3 °C 56.2 °F /  13.4 °C 30.10 in /  1019.2 hPa ESE 0.4 mph /  0.6 km/h 6.9 mph /  11.1 km/h 83 % 0.00 in /  0 mm
15:55 61.4 °F /  16.3 °C 56.5 °F /  13.6 °C 30.10 in /  1019.2 hPa SSE 1.5 mph /  2.4 km/h 5.8 mph /  9.3 km/h 84 % 0.00 in /  0 mm
16:00 61.5 °F /  16.4 °C 56.9 °F /  13.8 °C 30.10 in /  1019.2 hPa ESE 1.3 mph /  2.1 km/h 2.3 mph /  3.7 km/h 85 % 0.00 in /  0 mm
16:05 61.5 °F /  16.4 °C 56.6 °F /  13.7 °C 30.10 in /  1019.2 hPa SSE 2.3 mph /  3.7 km/h 3.0 mph /  4.8 km/h 84 % 0.00 in /  0 mm
16:10 61.4 °F /  16.3 °C 55.9 °F /  13.3 °C 30.10 in /  1019.2 hPa SE 0.9 mph /  1.4 km/h 3.5 mph /  5.6 km/h 82 % 0.00 in /  0 mm
16:15 61.5 °F /  16.4 °C 56.3 °F /  13.5 °C 30.09 in /  1018.8 hPa SE 1.3 mph /  2.1 km/h 3.5 mph /  5.6 km/h 83 % 0.00 in /  0 mm
16:20 61.7 °F /  16.5 °C 56.5 °F /  13.6 °C 30.10 in /  1019.2 hPa SE 1.6 mph /  2.6 km/h 3.0 mph /  4.8 km/h 83 % 0.00 in /  0 mm
16:25 61.8 °F /  16.6 °C 56.6 °F /  13.7 °C 30.10 in /  1019.2 hPa ESE 3.1 mph /  5 km/h 5.0 mph /  8 km/h 83 % 0.00 in /  0 mm
16:30 61.9 °F /  16.6 °C 56.3 °F /  13.5 °C 30.10 in /  1019.2 hPa SSE 0.1 mph /  0.2 km/h 3.5 mph /  5.6 km/h 82 % 0.00 in /  0 mm
16:35 61.8 °F /  16.6 °C 55.9 °F /  13.3 °C 30.09 in /  1018.8 hPa SE 4.0 mph /  6.4 km/h 6.9 mph /  11.1 km/h 81 % 0.00 in /  0 mm
16:38 61.8 °F /  16.6 °C 55.9 °F /  13.3 °C 30.10 in /  1019.2 hPa SE 2.1 mph /  3.4 km/h 3.5 mph /  5.6 km/h 81 % 0.00 in /  0 mm
16:43 61.7 °F /  16.5 °C 55.8 °F /  13.2 °C 30.10 in /  1019.2 hPa SE 2.2 mph /  3.5 km/h 5.0 mph /  8 km/h 81 % 0.00 in /  0 mm
16:48 61.7 °F /  16.5 °C 56.1 °F /  13.4 °C 30.09 in /  1018.8 hPa SSE 5.1 mph /  8.2 km/h 8.1 mph /  13 km/h 82 % 0.00 in /  0 mm
16:53 61.6 °F /  16.4 °C 55.7 °F /  13.2 °C 30.09 in /  1018.8 hPa SSE 1.2 mph /  1.9 km/h 3.5 mph /  5.6 km/h 81 % 0.00 in /  0 mm
16:58 61.6 °F /  16.4 °C 55.7 °F /  13.2 °C 30.09 in /  1018.8 hPa SE 3.0 mph /  4.8 km/h 4.6 mph /  7.4 km/h 81 % 0.00 in /  0 mm
17:03 61.8 °F /  16.6 °C 56.6 °F /  13.7 °C 30.09 in /  1018.8 hPa SE 0.1 mph /  0.2 km/h 1.2 mph /  1.9 km/h 83 % 0.00 in /  0 mm
17:08 62.1 °F /  16.7 °C 57.5 °F /  14.2 °C 30.08 in /  1018.5 hPa SE 0.1 mph /  0.2 km/h 1.2 mph /  1.9 km/h 85 % 0.00 in /  0 mm
17:13 62.4 °F /  16.9 °C 56.8 °F /  13.8 °C 30.08 in /  1018.5 hPa SE 1.5 mph /  2.4 km/h 4.0 mph /  6.4 km/h 82 % 0.00 in /  0 mm
17:18 62.6 °F /  17 °C 57.0 °F /  13.9 °C 30.08 in /  1018.5 hPa SE 0.8 mph /  1.3 km/h 3.5 mph /  5.6 km/h 82 % 0.00 in /  0 mm
17:23 62.9 °F /  17.2 °C 57.7 °F /  14.3 °C 30.08 in /  1018.5 hPa SE 1.3 mph /  2.1 km/h 2.3 mph /  3.7 km/h 83 % 0.00 in /  0 mm
17:28 62.9 °F /  17.2 °C 57.3 °F /  14.1 °C 30.08 in /  1018.5 hPa SE 0.6 mph /  1 km/h 3.5 mph /  5.6 km/h 82 % 0.00 in /  0 mm
17:33 62.7 °F /  17.1 °C 57.1 °F /  13.9 °C 30.09 in /  1018.8 hPa South 0.8 mph /  1.3 km/h 4.0 mph /  6.4 km/h 82 % 0.00 in /  0 mm
17:38 62.8 °F /  17.1 °C 57.2 °F /  14 °C 30.08 in /  1018.5 hPa SSE 0.7 mph /  1.1 km/h 1.2 mph /  1.9 km/h 82 % 0.00 in /  0 mm
17:43 62.9 °F /  17.2 °C 57.3 °F /  14.1 °C 30.08 in /  1018.5 hPa SE 2.3 mph /  3.7 km/h 5.0 mph /  8 km/h 82 % 0.00 in /  0 mm
17:48 62.9 °F /  17.2 °C 57.3 °F /  14.1 °C 30.08 in /  1018.5 hPa Calm     82 % 0.00 in /  0 mm
17:53 62.9 °F /  17.2 °C 57.3 °F /  14.1 °C 30.08 in /  1018.5 hPa SE 0.1 mph /  0.2 km/h 1.2 mph /  1.9 km/h 82 % 0.00 in /  0 mm
17:58 62.6 °F /  17 °C 56.3 °F /  13.5 °C 30.09 in /  1018.8 hPa SSE 4.1 mph /  6.6 km/h 6.0 mph /  9.7 km/h 80 % 0.00 in /  0 mm
18:03 62.1 °F /  16.7 °C 55.9 °F /  13.3 °C 30.10 in /  1019.2 hPa SSE 3.5 mph /  5.6 km/h 8.0 mph /  12.9 km/h 80 % 0.00 in /  0 mm
18:08 61.7 °F /  16.5 °C 55.8 °F /  13.2 °C 30.10 in /  1019.2 hPa SSE 0.8 mph /  1.3 km/h 3.5 mph /  5.6 km/h 81 % 0.00 in /  0 mm
18:13 61.3 °F /  16.3 °C 55.4 °F /  13 °C 30.10 in /  1019.2 hPa SE 2.6 mph /  4.2 km/h 4.6 mph /  7.4 km/h 81 % 0.00 in /  0 mm
18:18 61.1 °F /  16.2 °C 55.6 °F /  13.1 °C 30.10 in /  1019.2 hPa SSE 3.1 mph /  5 km/h 4.6 mph /  7.4 km/h 82 % 0.00 in /  0 mm
18:23 60.8 °F /  16 °C 55.6 °F /  13.1 °C 30.10 in /  1019.2 hPa SE 0.2 mph /  0.3 km/h 1.2 mph /  1.9 km/h 83 % 0.00 in /  0 mm
18:28 60.8 °F /  16 °C 55.9 °F /  13.3 °C 30.10 in /  1019.2 hPa SE 2.2 mph /  3.5 km/h 3.5 mph /  5.6 km/h 84 % 0.00 in /  0 mm
18:33 60.7 °F /  15.9 °C 56.2 °F /  13.4 °C 30.10 in /  1019.2 hPa SE 0.2 mph /  0.3 km/h 1.2 mph /  1.9 km/h 85 % 0.00 in /  0 mm
18:38 60.7 °F /  15.9 °C 56.2 °F /  13.4 °C 30.10 in /  1019.2 hPa SE 1.0 mph /  1.6 km/h 2.3 mph /  3.7 km/h 85 % 0.00 in /  0 mm
18:44 60.5 °F /  15.8 °C 55.6 °F /  13.1 °C 30.10 in /  1019.2 hPa Calm     84 % 0.00 in /  0 mm
18:49 60.4 °F /  15.8 °C 55.5 °F /  13.1 °C 30.10 in /  1019.2 hPa SE 1.1 mph /  1.8 km/h 4.0 mph /  6.4 km/h 84 % 0.00 in /  0 mm
18:54 60.3 °F /  15.7 °C 55.8 °F /  13.2 °C 30.10 in /  1019.2 hPa Calm     85 % 0.00 in /  0 mm
18:59 60.2 °F /  15.7 °C 55.7 °F /  13.2 °C 30.10 in /  1019.2 hPa SE 1.1 mph /  1.8 km/h 2.3 mph /  3.7 km/h 85 % 0.00 in /  0 mm
19:04 60.1 °F /  15.6 °C 55.9 °F /  13.3 °C 30.09 in /  1018.8 hPa SE 0.9 mph /  1.4 km/h 3.5 mph /  5.6 km/h 86 % 0.00 in /  0 mm
19:09 60.0 °F /  15.6 °C 55.8 °F /  13.2 °C 30.09 in /  1018.8 hPa SE 3.5 mph /  5.6 km/h 5.8 mph /  9.3 km/h 86 % 0.00 in /  0 mm
19:14 59.9 °F /  15.5 °C 55.7 °F /  13.2 °C 30.08 in /  1018.5 hPa SSE 4.2 mph /  6.8 km/h 8.1 mph /  13 km/h 86 % 0.00 in /  0 mm
19:19 59.8 °F /  15.4 °C 55.6 °F /  13.1 °C 30.08 in /  1018.5 hPa SE 3.0 mph /  4.8 km/h 4.6 mph /  7.4 km/h 86 % 0.00 in /  0 mm
19:24 59.7 °F /  15.4 °C 55.8 °F /  13.2 °C 30.08 in /  1018.5 hPa SE 1.2 mph /  1.9 km/h 3.5 mph /  5.6 km/h 87 % 0.00 in /  0 mm
19:29 59.6 °F /  15.3 °C 55.7 °F /  13.2 °C 30.08 in /  1018.5 hPa SE 1.9 mph /  3.1 km/h 5.8 mph /  9.3 km/h 87 % 0.00 in /  0 mm
19:34 59.5 °F /  15.3 °C 55.3 °F /  12.9 °C 30.08 in /  1018.5 hPa SSE 0.4 mph /  0.6 km/h 2.3 mph /  3.7 km/h 86 % 0.00 in /  0 mm
19:39 59.4 °F /  15.2 °C 55.5 °F /  13.1 °C 30.08 in /  1018.5 hPa South 3.0 mph /  4.8 km/h 7.0 mph /  11.3 km/h 87 % 0.00 in /  0 mm
19:44 59.3 °F /  15.2 °C 55.4 °F /  13 °C 30.08 in /  1018.5 hPa SE 2.5 mph /  4 km/h 4.6 mph /  7.4 km/h 87 % 0.00 in /  0 mm
19:49 59.1 °F /  15.1 °C 55.2 °F /  12.9 °C 30.08 in /  1018.5 hPa SSE 3.3 mph /  5.3 km/h 4.6 mph /  7.4 km/h 87 % 0.00 in /  0 mm
19:54 59.1 °F /  15.1 °C 55.2 °F /  12.9 °C 30.08 in /  1018.5 hPa SE 1.1 mph /  1.8 km/h 2.3 mph /  3.7 km/h 87 % 0.00 in /  0 mm
19:59 58.9 °F /  14.9 °C 55.4 °F /  13 °C 30.08 in /  1018.5 hPa SE 2.0 mph /  3.2 km/h 4.0 mph /  6.4 km/h 88 % 0.00 in /  0 mm
20:04 58.8 °F /  14.9 °C 55.3 °F /  12.9 °C 30.08 in /  1018.5 hPa SSE 2.9 mph /  4.7 km/h 5.0 mph /  8 km/h 88 % 0.00 in /  0 mm
20:09 58.6 °F /  14.8 °C 55.1 °F /  12.8 °C 30.08 in /  1018.5 hPa SE 1.7 mph /  2.7 km/h 4.6 mph /  7.4 km/h 88 % 0.00 in /  0 mm
20:14 58.5 °F /  14.7 °C 55.0 °F /  12.8 °C 30.09 in /  1018.8 hPa SE 0.3 mph /  0.5 km/h 3.5 mph /  5.6 km/h 88 % 0.00 in /  0 mm
20:20 58.4 °F /  14.7 °C 54.9 °F /  12.7 °C 30.09 in /  1018.8 hPa SE 0.3 mph /  0.5 km/h 2.3 mph /  3.7 km/h 88 % 0.00 in /  0 mm
20:25 58.3 °F /  14.6 °C 55.1 °F /  12.8 °C 30.09 in /  1018.8 hPa SSE 0.4 mph /  0.6 km/h 3.5 mph /  5.6 km/h 89 % 0.00 in /  0 mm
20:35 58.2 °F /  14.6 °C 55.0 °F /  12.8 °C 30.09 in /  1018.8 hPa SSE 1.9 mph /  3.1 km/h 3.5 mph /  5.6 km/h 89 % 0.00 in /  0 mm
20:40 58.1 °F /  14.5 °C 54.9 °F /  12.7 °C 30.10 in /  1019.2 hPa Calm     89 % 0.00 in /  0 mm
20:45 58.1 °F /  14.5 °C 55.2 °F /  12.9 °C 30.10 in /  1019.2 hPa Calm     90 % 0.00 in /  0 mm
20:50 58.0 °F /  14.4 °C 55.1 °F /  12.8 °C 30.10 in /  1019.2 hPa SSE 0.1 mph /  0.2 km/h 2.3 mph /  3.7 km/h 90 % 0.00 in /  0 mm
20:51 58.0 °F /  14.4 °C 55.1 °F /  12.8 °C 30.09 in /  1018.8 hPa SSE 1.3 mph /  2.1 km/h 3.5 mph /  5.6 km/h 90 % 0.00 in /  0 mm
21:01 58.0 °F /  14.4 °C 55.1 °F /  12.8 °C 30.09 in /  1018.8 hPa SSE 1.0 mph /  1.6 km/h 2.0 mph /  3.2 km/h 90 % 0.00 in /  0 mm
21:06 57.9 °F /  14.4 °C 55.3 °F /  12.9 °C 30.09 in /  1018.8 hPa SSE 0.1 mph /  0.2 km/h   91 % 0.00 in /  0 mm
21:11 57.9 °F /  14.4 °C 55.3 °F /  12.9 °C 30.09 in /  1018.8 hPa Calm     91 % 0.00 in /  0 mm
21:16 57.9 °F /  14.4 °C 55.3 °F /  12.9 °C 30.09 in /  1018.8 hPa Calm     91 % 0.00 in /  0 mm
21:22 57.8 °F /  14.3 °C 55.2 °F /  12.9 °C 30.09 in /  1018.8 hPa Calm     91 % 0.00 in /  0 mm
21:27 57.8 °F /  14.3 °C 55.2 °F /  12.9 °C 30.09 in /  1018.8 hPa SSE 0.5 mph /  0.8 km/h 2.3 mph /  3.7 km/h 91 % 0.00 in /  0 mm
21:32 57.8 °F /  14.3 °C 55.2 °F /  12.9 °C 30.10 in /  1019.2 hPa SE 3.5 mph /  5.6 km/h 5.8 mph /  9.3 km/h 91 % 0.00 in /  0 mm
21:37 57.7 °F /  14.3 °C 55.4 °F /  13 °C 30.09 in /  1018.8 hPa SE 1.1 mph /  1.8 km/h 4.0 mph /  6.4 km/h 92 % 0.00 in /  0 mm
21:42 57.6 °F /  14.2 °C 55.3 °F /  12.9 °C 30.09 in /  1018.8 hPa SE 1.0 mph /  1.6 km/h 4.6 mph /  7.4 km/h 92 % 0.00 in /  0 mm
21:47 57.6 °F /  14.2 °C 55.3 °F /  12.9 °C 30.09 in /  1018.8 hPa SE 1.6 mph /  2.6 km/h 3.5 mph /  5.6 km/h 92 % 0.00 in /  0 mm
21:52 57.5 °F /  14.2 °C 55.5 °F /  13.1 °C 30.09 in /  1018.8 hPa SSE 0.9 mph /  1.4 km/h 3.5 mph /  5.6 km/h 93 % 0.00 in /  0 mm
21:57 57.5 °F /  14.2 °C 55.5 °F /  13.1 °C 30.09 in /  1018.8 hPa SSE 1.9 mph /  3.1 km/h 5.8 mph /  9.3 km/h 93 % 0.00 in /  0 mm
22:02 57.4 °F /  14.1 °C 55.4 °F /  13 °C 30.09 in /  1018.8 hPa Calm   2.3 mph /  3.7 km/h 93 % 0.00 in /  0 mm
22:07 57.4 °F /  14.1 °C 55.4 °F /  13 °C 30.09 in /  1018.8 hPa Calm     93 % 0.00 in /  0 mm
22:12 57.4 °F /  14.1 °C 55.4 °F /  13 °C 30.09 in /  1018.8 hPa SSE 1.1 mph /  1.8 km/h 2.0 mph /  3.2 km/h 93 % 0.00 in /  0 mm
22:17 57.3 °F /  14.1 °C 55.3 °F /  12.9 °C 30.09 in /  1018.8 hPa Calm     93 % 0.00 in /  0 mm
22:22 57.3 °F /  14.1 °C 55.3 °F /  12.9 °C 30.09 in /  1018.8 hPa Calm     93 % 0.00 in /  0 mm
22:27 57.3 °F /  14.1 °C 55.6 °F /  13.1 °C 30.09 in /  1018.8 hPa Calm     94 % 0.00 in /  0 mm
22:32 57.3 °F /  14.1 °C 55.6 °F /  13.1 °C 30.09 in /  1018.8 hPa SSE 0.2 mph /  0.3 km/h 2.3 mph /  3.7 km/h 94 % 0.00 in /  0 mm
22:37 57.3 °F /  14.1 °C 55.6 °F /  13.1 °C 30.09 in /  1018.8 hPa SSE 1.0 mph /  1.6 km/h 4.6 mph /  7.4 km/h 94 % 0.00 in /  0 mm
22:42 57.3 °F /  14.1 °C 55.6 °F /  13.1 °C 30.09 in /  1018.8 hPa SE 0.1 mph /  0.2 km/h 2.3 mph /  3.7 km/h 94 % 0.00 in /  0 mm
22:47 57.2 °F /  14 °C 55.5 °F /  13.1 °C 30.09 in /  1018.8 hPa SE 2.9 mph /  4.7 km/h 3.5 mph /  5.6 km/h 94 % 0.00 in /  0 mm
22:53 57.1 °F /  13.9 °C 55.7 °F /  13.2 °C 30.08 in /  1018.5 hPa SE 1.0 mph /  1.6 km/h 3.5 mph /  5.6 km/h 95 % 0.00 in /  0 mm
22:58 57.1 °F /  13.9 °C 55.7 °F /  13.2 °C 30.09 in /  1018.8 hPa SE 0.4 mph /  0.6 km/h 4.6 mph /  7.4 km/h 95 % 0.00 in /  0 mm
23:03 57.1 °F /  13.9 °C 55.7 °F /  13.2 °C 30.08 in /  1018.5 hPa SE 1.3 mph /  2.1 km/h 3.5 mph /  5.6 km/h 95 % 0.00 in /  0 mm
23:08 57.0 °F /  13.9 °C 55.6 °F /  13.1 °C 30.08 in /  1018.5 hPa SE 0.2 mph /  0.3 km/h 2.3 mph /  3.7 km/h 95 % 0.00 in /  0 mm
23:13 57.0 °F /  13.9 °C 55.6 °F /  13.1 °C 30.08 in /  1018.5 hPa Calm   1.2 mph /  1.9 km/h 95 % 0.00 in /  0 mm
23:18 57.0 °F /  13.9 °C 55.6 °F /  13.1 °C 30.08 in /  1018.5 hPa Calm     95 % 0.00 in /  0 mm
23:23 57.0 °F /  13.9 °C 55.6 °F /  13.1 °C 30.08 in /  1018.5 hPa SE 0.2 mph /  0.3 km/h 1.2 mph /  1.9 km/h 95 % 0.00 in /  0 mm
23:28 57.0 °F /  13.9 °C 55.6 °F /  13.1 °C 30.08 in /  1018.5 hPa Calm     95 % 0.00 in /  0 mm
23:33 57.0 °F /  13.9 °C 55.6 °F /  13.1 °C 30.08 in /  1018.5 hPa SE 0.3 mph /  0.5 km/h 2.3 mph /  3.7 km/h 95 % 0.00 in /  0 mm
23:38 57.0 °F /  13.9 °C 55.6 °F /  13.1 °C 30.08 in /  1018.5 hPa Calm   1.2 mph /  1.9 km/h 95 % 0.00 in /  0 mm
23:43 57.0 °F /  13.9 °C 55.6 °F /  13.1 °C 30.08 in /  1018.5 hPa ESE 1.2 mph /  1.9 km/h 3.5 mph /  5.6 km/h 95 % 0.00 in /  0 mm
23:48 57.0 °F /  13.9 °C 55.9 °F /  13.3 °C 30.08 in /  1018.5 hPa SE 0.2 mph /  0.3 km/h 2.3 mph /  3.7 km/h 96 % 0.00 in /  0 mm
23:53 57.0 °F /  13.9 °C 55.9 °F /  13.3 °C 30.08 in /  1018.5 hPa SE 0.1 mph /  0.2 km/h 2.3 mph /  3.7 km/h 96 % 0.00 in /  0 mm
23:58 57.0 °F /  13.9 °C 55.9 °F /  13.3 °C 30.08 in /  1018.5 hPa SE 0.2 mph /  0.3 km/h 2.3 mph /  3.7 km/h 96 % 0.00 in /  0 mm
Crab Meadow Weather
Compliments of Weather Underground - 3 mb

Script developed by  Jim McMurry - jmcmurry@mwt.net Adapted for the template by  Wim van der Kuil - Leuven-Template.eu

Extremes: Alaska and Hawaii have the same heat record. In Pahala, Hawaii the temperature on April 27, 1931 was 100 degrees F. Alaska's state heat record is also 100 degrees F. on June 27, 1915 at Fort Yukon.